Time;durP1;ratioP1;P1;durP2;ratioP2;P2;SDS_P1;SDS_P2;PMS_P1;PMS_P2;Temp;Humidity;BMP_temperature;BMP_pressure;BME280_temperature;BME280_humidity;BME280_pressure;Samples;Min_cycle;Max_cycle;Signal;HPM_P1;HPM_P2
2022/12/23 00:00:16;;;;;;;82.07;40.28;;;7.30;99.90;;;;;;5047638;28;20881;-71
2022/12/23 00:02:41;;;;;;;74.63;39.97;;;7.30;99.90;;;;;;5040898;28;20432;-71
2022/12/23 00:05:08;;;;;;;90.40;42.08;;;7.50;99.90;;;;;;5034721;28;20415;-73
2022/12/23 00:07:33;;;;;;;63.43;37.27;;;7.40;99.90;;;;;;5022187;28;20459;-71
2022/12/23 00:09:59;;;;;;;71.80;38.87;;;7.50;99.90;;;;;;5047683;28;20409;-73
2022/12/23 00:15:11;;;;;;;64.73;37.37;;;7.30;99.90;;;;;;5046127;28;20496;-72
2022/12/23 00:17:41;;;;;;;72.65;39.10;;;7.50;99.90;;;;;;5040561;28;20429;-71
2022/12/23 00:20:11;;;;;;;68.88;38.25;;;7.60;99.90;;;;;;5012015;28;20438;-72
2022/12/23 00:25:39;;;;;;;69.43;37.83;;;7.50;99.90;;;;;;5015575;28;20944;-72
2022/12/23 00:28:13;;;;;;;62.08;38.60;;;7.50;99.90;;;;;;5022616;28;20996;-72
2022/12/23 00:31:01;;;;;;;78.63;41.08;;;7.30;99.90;;;;;;5014279;28;20419;-70
2022/12/23 00:33:30;;;;;;;59.92;37.78;;;7.50;99.90;;;;;;5013291;28;20941;-72
2022/12/23 00:35:56;;;;;;;75.63;40.00;;;7.50;99.90;;;;;;5025839;28;20466;-71
2022/12/23 00:43:56;;;;;;;82.80;40.33;;;7.80;99.90;;;;;;5023997;28;20917;-71
2022/12/23 00:46:22;;;;;;;57.17;35.87;;;7.70;99.90;;;;;;5007549;28;20437;-72
2022/12/23 00:51:32;;;;;;;69.97;37.15;;;7.80;99.90;;;;;;5022434;28;20516;-71
2022/12/23 00:53:58;;;;;;;74.10;37.65;;;7.70;99.90;;;;;;5018922;28;20928;-70
2022/12/23 00:56:23;;;;;;;75.05;38.47;;;7.70;99.90;;;;;;5005865;28;20427;-72
2022/12/23 00:58:49;;;;;;;77.80;37.60;;;7.80;99.90;;;;;;5008940;28;20529;-72
2022/12/23 01:06:44;;;;;;;60.08;35.92;;;7.90;99.90;;;;;;5015259;28;20448;-71
2022/12/23 01:09:10;;;;;;;52.97;33.75;;;7.70;99.90;;;;;;5018204;28;20484;-71
2022/12/23 01:11:35;;;;;;;52.42;32.92;;;7.80;99.90;;;;;;5025169;28;20592;-73
2022/12/23 01:14:01;;;;;;;55.17;34.80;;;7.90;99.90;;;;;;5023992;28;20431;-72
2022/12/23 01:16:27;;;;;;;56.90;34.47;;;7.60;99.90;;;;;;5015906;28;20431;-71
2022/12/23 01:18:52;;;;;;;55.90;33.27;;;7.60;99.90;;;;;;5030518;28;20424;-70
2022/12/23 01:21:18;;;;;;;53.50;32.63;;;7.90;99.90;;;;;;5044190;28;20421;-72
2022/12/23 01:23:44;;;;;;;59.63;33.47;;;7.70;99.90;;;;;;5045220;28;20485;-72
2022/12/23 01:26:10;;;;;;;78.13;35.27;;;7.90;99.90;;;;;;5041656;28;20441;-72
2022/12/23 01:28:36;;;;;;;59.22;32.63;;;7.70;99.90;;;;;;5026385;28;20421;-72
2022/12/23 01:31:03;;;;;;;77.55;34.22;;;7.80;99.90;;;;;;5043371;28;20425;-72
2022/12/23 01:33:32;;;;;;;66.45;32.72;;;7.90;99.90;;;;;;5026408;28;20422;-72
2022/12/23 01:36:03;;;;;;;93.50;36.58;;;7.90;99.90;;;;;;5043665;28;20425;-72
2022/12/23 01:38:32;;;;;;;64.75;32.38;;;7.90;99.90;;;;;;5045648;28;20501;-73
2022/12/23 01:40:58;;;;;;;69.88;32.25;;;8.00;99.90;;;;;;5034608;28;20512;-73
2022/12/23 01:43:50;;;;;;;90.70;34.33;;;8.00;99.90;;;;;;5038487;28;20552;-71
2022/12/23 01:46:16;;;;;;;64.50;32.00;;;7.90;99.90;;;;;;5037905;28;20462;-72
2022/12/23 01:48:46;;;;;;;94.82;35.17;;;7.90;99.90;;;;;;5042942;28;20417;-72
2022/12/23 01:51:19;;;;;;;68.43;33.00;;;7.80;99.90;;;;;;5043258;28;20413;-71
2022/12/23 01:53:49;;;;;;;68.25;32.78;;;7.80;99.90;;;;;;5042153;28;20427;-72
2022/12/23 01:56:27;;;;;;;77.25;34.92;;;7.80;99.90;;;;;;5042791;28;20418;-71
2022/12/23 01:58:58;;;;;;;85.60;34.90;;;7.80;99.90;;;;;;5042188;28;20509;-73
2022/12/23 02:04:12;;;;;;;96.72;38.70;;;7.60;99.90;;;;;;5042052;28;20431;-71
2022/12/23 02:09:31;;;;;;;104.07;37.42;;;7.90;99.90;;;;;;5043114;28;20429;-71
2022/12/23 02:11:57;;;;;;;113.93;41.97;;;7.90;99.90;;;;;;5041416;28;20443;-72
2022/12/23 02:18:05;;;;;;;111.70;41.08;;;7.90;99.90;;;;;;5046969;28;20419;-72
2022/12/23 02:20:49;;;;;;;83.25;39.35;;;7.80;99.90;;;;;;5045576;28;20424;-71
2022/12/23 02:23:34;;;;;;;148.77;46.20;;;7.70;99.90;;;;;;5047933;28;20425;-72
2022/12/23 02:26:24;;;;;;;114.63;43.90;;;7.80;99.90;;;;;;5041122;28;20964;-71
2022/12/23 02:29:09;;;;;;;127.75;45.88;;;7.90;99.90;;;;;;5016149;28;20421;-73
2022/12/23 02:31:42;;;;;;;118.13;45.00;;;7.90;99.90;;;;;;5057507;28;20423;-71
2022/12/23 02:34:20;;;;;;;160.63;47.58;;;8.00;99.90;;;;;;5042723;28;20413;-72
2022/12/23 02:37:07;;;;;;;166.93;50.15;;;7.90;99.90;;;;;;5043767;28;20431;-72
2022/12/23 02:40:01;;;;;;;174.27;50.00;;;7.90;99.90;;;;;;4998699;28;20433;-72
2022/12/23 02:42:55;;;;;;;147.43;51.78;;;7.80;99.90;;;;;;5027894;28;20460;-71
2022/12/23 02:45:29;;;;;;;199.82;52.45;;;7.90;99.90;;;;;;5018556;28;20753;-72
2022/12/23 02:48:21;;;;;;;196.55;53.88;;;7.90;99.90;;;;;;5044265;28;20492;-71
2022/12/23 02:50:47;;;;;;;125.05;49.15;;;8.00;99.90;;;;;;5027950;28;20452;-71
2022/12/23 02:53:20;;;;;;;144.82;52.15;;;7.90;99.90;;;;;;5026425;28;20417;-72
2022/12/23 02:55:50;;;;;;;177.48;52.55;;;7.70;99.90;;;;;;5053564;28;20415;-72
2022/12/23 02:58:19;;;;;;;121.68;48.28;;;7.70;99.90;;;;;;5055034;28;20434;-71
2022/12/23 03:00:47;;;;;;;143.00;49.15;;;8.00;99.90;;;;;;5039218;28;20425;-72
2022/12/23 03:03:15;;;;;;;165.98;52.30;;;7.80;99.90;;;;;;5039491;28;20899;-71
2022/12/23 03:05:44;;;;;;;136.77;46.65;;;7.80;99.90;;;;;;5046470;28;20440;-72
2022/12/23 03:08:33;;;;;;;114.53;44.60;;;7.90;99.90;;;;;;5047676;28;20433;-72
2022/12/23 03:11:08;;;;;;;151.35;47.35;;;7.90;99.90;;;;;;5031942;28;20452;-73
2022/12/23 03:14:02;;;;;;;101.22;45.08;;;7.90;99.90;;;;;;5043404;28;20752;-71
2022/12/23 03:16:46;;;;;;;102.43;45.10;;;7.90;99.90;;;;;;5056951;28;20455;-73
2022/12/23 03:19:33;;;;;;;121.07;45.25;;;7.80;99.90;;;;;;5023642;28;20435;-72
2022/12/23 03:22:11;;;;;;;120.20;44.70;;;7.90;99.90;;;;;;5009827;28;20434;-71
2022/12/23 03:25:02;;;;;;;161.02;48.30;;;7.80;99.90;;;;;;5026597;28;20455;-71
2022/12/23 03:27:44;;;;;;;120.47;44.42;;;7.80;99.90;;;;;;5019317;28;20518;-71
2022/12/23 03:30:16;;;;;;;152.75;47.05;;;7.70;99.90;;;;;;5026324;28;20509;-71
2022/12/23 03:32:53;;;;;;;127.47;48.03;;;7.70;99.90;;;;;;5027451;28;20502;-71
2022/12/23 03:35:24;;;;;;;131.18;45.83;;;7.90;99.90;;;;;;5003148;28;20439;-73
2022/12/23 03:37:53;;;;;;;191.45;48.47;;;7.70;99.90;;;;;;5027900;28;20419;-72
2022/12/23 03:40:23;;;;;;;116.03;43.30;;;7.80;99.90;;;;;;5013557;28;20526;-71
2022/12/23 03:42:57;;;;;;;102.25;41.75;;;7.70;99.90;;;;;;5011165;28;20403;-71
2022/12/23 03:45:45;;;;;;;113.07;42.78;;;7.70;99.90;;;;;;5009913;28;20477;-72
2022/12/23 03:48:22;;;;;;;106.75;41.13;;;7.60;99.90;;;;;;4992661;28;20833;-72
2022/12/23 03:51:01;;;;;;;111.53;43.28;;;7.80;99.90;;;;;;5025332;28;20415;-72
2022/12/23 03:53:43;;;;;;;106.43;41.80;;;7.70;99.90;;;;;;5026457;28;20759;-71
2022/12/23 03:56:14;;;;;;;108.80;40.55;;;7.60;99.90;;;;;;5022284;28;20419;-71
2022/12/23 03:58:49;;;;;;;81.93;37.23;;;7.70;99.90;;;;;;5024651;28;20428;-71
2022/12/23 04:01:27;;;;;;;85.32;37.53;;;7.80;99.90;;;;;;5006024;28;20458;-72
2022/12/23 04:04:06;;;;;;;77.70;36.50;;;7.70;99.90;;;;;;5003995;28;20423;-71
2022/12/23 04:06:45;;;;;;;79.97;35.90;;;7.60;99.90;;;;;;5006024;28;20443;-72
2022/12/23 04:09:14;;;;;;;88.18;37.72;;;7.60;99.90;;;;;;5025916;28;20461;-71
2022/12/23 04:11:40;;;;;;;84.10;35.85;;;7.80;99.90;;;;;;5025916;28;20449;-72
2022/12/23 04:14:06;;;;;;;81.53;34.92;;;7.80;99.90;;;;;;5027223;28;20423;-71
2022/12/23 04:16:33;;;;;;;94.80;37.55;;;7.70;99.90;;;;;;5007023;28;20534;-72
2022/12/23 04:18:58;;;;;;;83.65;35.25;;;7.50;99.90;;;;;;5023954;28;20423;-72
2022/12/23 04:21:24;;;;;;;87.83;35.97;;;7.50;99.90;;;;;;5023379;28;20939;-71
2022/12/23 04:23:50;;;;;;;76.28;33.75;;;7.40;99.90;;;;;;5023399;28;20509;-71
2022/12/23 04:26:16;;;;;;;66.57;32.05;;;7.40;99.90;;;;;;5025462;28;20520;-71
2022/12/23 04:28:42;;;;;;;74.88;32.03;;;7.50;99.90;;;;;;5025641;28;20443;-71
2022/12/23 04:31:07;;;;;;;80.23;32.53;;;7.50;99.90;;;;;;5020221;28;20481;-72
2022/12/23 04:33:33;;;;;;;73.40;32.08;;;7.60;99.90;;;;;;5025160;28;20937;-71
2022/12/23 04:35:59;;;;;;;61.70;29.50;;;7.60;99.90;;;;;;5024945;28;20463;-70
2022/12/23 04:38:25;;;;;;;63.80;30.73;;;7.60;99.90;;;;;;5024421;28;20415;-70
2022/12/23 04:40:51;;;;;;;72.57;30.23;;;7.70;99.90;;;;;;5005832;28;20941;-71
2022/12/23 04:43:16;;;;;;;60.97;28.50;;;7.60;99.90;;;;;;5002608;28;20425;-70
2022/12/23 04:45:42;;;;;;;67.37;29.93;;;7.60;99.90;;;;;;5023947;28;20442;-71
2022/12/23 04:48:08;;;;;;;65.17;30.20;;;7.80;99.90;;;;;;5016242;28;20438;-71
2022/12/23 04:50:34;;;;;;;68.40;30.13;;;7.70;99.90;;;;;;5007117;28;21007;-71
2022/12/23 04:52:59;;;;;;;60.88;30.27;;;7.50;99.90;;;;;;5025718;28;20439;-72
2022/12/23 04:55:25;;;;;;;82.65;32.30;;;7.70;99.90;;;;;;5023530;28;20411;-71
2022/12/23 04:57:51;;;;;;;81.88;32.03;;;7.50;99.90;;;;;;5022274;28;20435;-72
2022/12/23 05:00:17;;;;;;;101.97;34.70;;;7.60;99.90;;;;;;5023152;28;20415;-71
2022/12/23 05:02:43;;;;;;;85.00;32.42;;;7.50;99.90;;;;;;5025230;28;20430;-72
2022/12/23 05:05:08;;;;;;;84.82;34.05;;;7.40;99.90;;;;;;5022439;28;20415;-71
2022/12/23 05:07:34;;;;;;;79.38;33.67;;;7.30;99.90;;;;;;5014869;28;20441;-70
2022/12/23 05:10:00;;;;;;;67.40;33.85;;;7.60;99.90;;;;;;5019444;28;20418;-71
2022/12/23 05:12:30;;;;;;;65.85;32.25;;;7.50;99.90;;;;;;5018944;28;21381;-71
2022/12/23 05:14:55;;;;;;;63.58;31.42;;;7.30;99.90;;;;;;5019353;28;20482;-72
2022/12/23 05:17:21;;;;;;;63.28;30.75;;;7.40;99.90;;;;;;5014838;28;20810;-74
2022/12/23 05:19:47;;;;;;;79.35;33.08;;;7.50;99.90;;;;;;5041424;28;20512;-71
2022/12/23 05:22:13;;;;;;;68.87;32.00;;;7.50;99.90;;;;;;5027335;28;21260;-72
2022/12/23 05:24:38;;;;;;;63.43;31.83;;;7.50;99.90;;;;;;5043977;28;20417;-70
2022/12/23 05:27:04;;;;;;;79.37;31.83;;;7.40;99.90;;;;;;5029427;28;20445;-72
2022/12/23 05:29:30;;;;;;;59.40;30.10;;;7.40;99.90;;;;;;5034042;28;20444;-72
2022/12/23 05:31:55;;;;;;;86.67;46.17;;;7.50;99.90;;;;;;5051445;28;20471;-71
2022/12/23 05:34:21;;;;;;;82.97;47.27;;;7.20;99.90;;;;;;5049851;28;20625;-73
2022/12/23 05:36:47;;;;;;;76.97;33.80;;;7.30;99.90;;;;;;5048542;28;20528;-71
2022/12/23 05:39:13;;;;;;;66.40;31.63;;;7.40;99.90;;;;;;5053099;28;20417;-73
2022/12/23 05:41:38;;;;;;;72.37;32.20;;;7.40;99.90;;;;;;5027841;28;20436;-74
2022/12/23 05:44:04;;;;;;;68.50;32.13;;;7.30;99.90;;;;;;5004728;28;20419;-72
2022/12/23 05:46:30;;;;;;;71.57;32.83;;;7.20;99.90;;;;;;5041241;28;20501;-71
2022/12/23 05:48:55;;;;;;;69.07;32.33;;;7.40;99.90;;;;;;5051266;28;20795;-71
2022/12/23 05:51:21;;;;;;;78.47;31.83;;;7.20;99.90;;;;;;5027628;28;20787;-70
2022/12/23 05:53:47;;;;;;;73.10;32.58;;;7.40;99.90;;;;;;5060719;28;20829;-73
2022/12/23 05:56:12;;;;;;;71.75;30.80;;;7.40;99.90;;;;;;5050757;28;20420;-71
2022/12/23 05:58:38;;;;;;;92.38;33.38;;;7.30;99.90;;;;;;5050704;28;20507;-73
2022/12/23 06:01:04;;;;;;;67.72;29.75;;;7.20;99.90;;;;;;5052989;28;20429;-71
2022/12/23 06:03:30;;;;;;;69.13;28.67;;;7.20;99.90;;;;;;5050021;28;20483;-71
2022/12/23 06:05:55;;;;;;;79.25;30.55;;;7.10;99.90;;;;;;5014563;28;20429;-72
2022/12/23 06:08:21;;;;;;;54.55;28.80;;;7.10;99.90;;;;;;5047906;28;20945;-71
2022/12/23 06:10:47;;;;;;;62.75;28.27;;;7.10;99.90;;;;;;5049510;28;20980;-71
2022/12/23 06:13:13;;;;;;;62.55;29.85;;;7.00;99.90;;;;;;5036786;28;20428;-72
2022/12/23 06:15:38;;;;;;;58.83;29.07;;;7.00;99.90;;;;;;5044542;28;20422;-70
2022/12/23 06:20:57;;;;;;;64.57;28.73;;;6.80;99.90;;;;;;5009609;28;20419;-73
2022/12/23 06:23:41;;;;;;;60.45;29.55;;;6.80;99.90;;;;;;4881286;23;26501;-78
2022/12/23 06:26:07;;;;;;;72.40;30.25;;;7.10;99.90;;;;;;5006123;28;20432;-79
2022/12/23 06:28:33;;;;;;;131.77;31.13;;;7.00;99.90;;;;;;5007283;28;20479;-78
2022/12/23 06:30:59;;;;;;;127.15;31.85;;;6.80;99.90;;;;;;5008843;28;20435;-78
2022/12/23 06:33:25;;;;;;;95.87;31.30;;;7.00;99.90;;;;;;5008605;28;20930;-78
2022/12/23 06:35:50;;;;;;;102.47;30.70;;;7.20;99.90;;;;;;4985703;28;20463;-78
2022/12/23 06:38:16;;;;;;;198.60;34.47;;;6.80;99.90;;;;;;5003909;28;20431;-78
2022/12/23 06:40:41;;;;;;;135.40;30.37;;;6.90;99.90;;;;;;4988983;28;20410;-78
2022/12/23 06:43:08;;;;;;;151.15;31.60;;;7.00;99.90;;;;;;4973077;28;20914;-77
2022/12/23 06:45:34;;;;;;;98.53;28.95;;;6.70;99.90;;;;;;5010214;28;20428;-77
2022/12/23 06:48:00;;;;;;;108.07;29.53;;;6.80;99.90;;;;;;5010085;28;20471;-79
2022/12/23 06:50:25;;;;;;;173.68;34.47;;;6.80;99.90;;;;;;5009609;28;20823;-78
2022/12/23 06:52:51;;;;;;;108.47;30.13;;;7.00;99.90;;;;;;5008693;28;20431;-78
2022/12/23 06:55:16;;;;;;;142.45;33.22;;;7.20;99.90;;;;;;4998935;28;20425;-78
2022/12/23 06:57:42;;;;;;;108.32;32.03;;;6.90;99.90;;;;;;5009983;28;20923;-78
2022/12/23 07:00:08;;;;;;;211.53;36.83;;;7.00;99.90;;;;;;4975415;28;20967;-79
2022/12/23 07:02:34;;;;;;;237.38;36.60;;;7.00;99.90;;;;;;4983566;28;20466;-78
2022/12/23 07:05:00;;;;;;;165.38;35.53;;;6.90;99.90;;;;;;5007055;28;20416;-79
2022/12/23 07:07:25;;;;;;;122.13;31.48;;;7.10;99.90;;;;;;5008837;28;20512;-78
2022/12/23 07:09:51;;;;;;;114.30;29.10;;;7.00;99.90;;;;;;5009931;28;20401;-79
2022/12/23 07:12:17;;;;;;;136.15;31.67;;;7.00;99.90;;;;;;5010799;28;20468;-78
2022/12/23 07:14:42;;;;;;;150.77;34.75;;;7.00;99.90;;;;;;5010557;28;20429;-79
2022/12/23 07:17:08;;;;;;;80.97;29.95;;;7.00;99.90;;;;;;5002407;28;21024;-79
2022/12/23 07:19:34;;;;;;;223.50;37.27;;;7.10;99.90;;;;;;5002163;28;20813;-79
2022/12/23 07:21:59;;;;;;;179.13;32.23;;;7.20;99.90;;;;;;5008853;28;20494;-78
2022/12/23 07:24:25;;;;;;;172.40;32.00;;;6.90;99.90;;;;;;5000147;28;20468;-79
2022/12/23 07:26:51;;;;;;;122.50;30.33;;;7.00;99.90;;;;;;5029010;28;20463;-78
2022/12/23 07:29:17;;;;;;;109.20;29.07;;;7.10;99.90;;;;;;5028216;28;20831;-79
2022/12/23 07:31:42;;;;;;;149.32;31.65;;;7.20;99.90;;;;;;5019252;28;20440;-78
2022/12/23 07:34:08;;;;;;;102.63;30.23;;;7.20;99.90;;;;;;5009696;28;20970;-79
2022/12/23 07:36:34;;;;;;;117.63;31.25;;;7.20;99.90;;;;;;5020922;28;20793;-79
2022/12/23 07:39:00;;;;;;;122.70;32.00;;;7.20;99.90;;;;;;5026627;28;20518;-80
2022/12/23 07:41:25;;;;;;;105.43;30.88;;;7.20;99.90;;;;;;5028945;28;20422;-79
2022/12/23 07:43:51;;;;;;;109.80;31.13;;;7.10;99.90;;;;;;5012569;28;20934;-79
2022/12/23 07:46:17;;;;;;;106.28;29.35;;;6.90;99.90;;;;;;5028705;28;20427;-79
2022/12/23 07:48:42;;;;;;;91.78;29.33;;;7.10;99.90;;;;;;5027548;28;20473;-79
2022/12/23 07:51:08;;;;;;;57.28;26.25;;;7.20;99.90;;;;;;5027227;28;20485;-80
2022/12/23 07:53:34;;;;;;;52.47;25.15;;;7.00;99.90;;;;;;5022498;28;20426;-79
2022/12/23 07:56:00;;;;;;;62.88;27.08;;;7.20;99.90;;;;;;5028700;28;20418;-79
2022/12/23 07:58:26;;;;;;;57.97;27.95;;;7.10;99.90;;;;;;5028235;28;20825;-80
2022/12/23 08:01:01;;;;;;;57.58;26.92;;;7.30;99.90;;;;;;5028985;28;20502;-80
2022/12/23 08:03:27;;;;;;;56.45;25.77;;;7.10;99.90;;;;;;5028072;28;20987;-80
2022/12/23 08:06:04;;;;;;;68.63;26.85;;;7.10;99.90;;;;;;5028176;28;20514;-77
2022/12/23 08:08:30;;;;;;;77.32;28.55;;;7.40;99.90;;;;;;5026082;28;20430;-79
2022/12/23 08:11:01;;;;;;;61.25;28.30;;;7.40;99.90;;;;;;5036172;28;20452;-79
2022/12/23 08:13:27;;;;;;;54.38;25.83;;;7.20;99.90;;;;;;5034726;28;20438;-79
2022/12/23 08:15:58;;;;;;;46.47;23.33;;;7.40;99.90;;;;;;5026820;28;21109;-79
2022/12/23 08:18:24;;;;;;;57.63;24.40;;;7.40;99.90;;;;;;5027590;28;20430;-78
2022/12/23 08:21:01;;;;;;;47.33;24.52;;;7.50;99.90;;;;;;5027645;28;20418;-79
2022/12/23 08:23:27;;;;;;;51.53;24.85;;;7.20;99.90;;;;;;5023735;28;20419;-75
2022/12/23 08:26:07;;;;;;;46.25;23.90;;;7.30;99.90;;;;;;5021753;28;20423;-80
2022/12/23 08:28:34;;;;;;;46.03;23.17;;;7.30;99.90;;;;;;5017856;28;20427;-78
2022/12/23 08:31:26;;;;;;;47.80;23.95;;;7.30;99.90;;;;;;5028857;28;20768;-81
2022/12/23 08:33:54;;;;;;;58.92;26.55;;;7.30;99.90;;;;;;5025675;28;20419;-80
2022/12/23 08:36:23;;;;;;;49.22;22.42;;;7.40;99.90;;;;;;5028345;28;20764;-82
2022/12/23 08:38:51;;;;;;;49.53;23.35;;;7.20;99.90;;;;;;5027664;28;20733;-81
2022/12/23 08:41:20;;;;;;;47.83;22.23;;;7.40;99.90;;;;;;5028363;28;20457;-83
2022/12/23 08:43:46;;;;;;;40.23;21.83;;;7.40;99.90;;;;;;5025825;28;20562;-84
2022/12/23 08:46:12;;;;;;;42.87;21.50;;;7.30;99.90;;;;;;5026839;28;20458;-81
2022/12/23 08:48:38;;;;;;;56.33;25.30;;;7.40;99.90;;;;;;5027491;28;20806;-84
2022/12/23 08:51:09;;;;;;;54.40;24.07;;;7.50;99.90;;;;;;5031512;28;20849;-80
2022/12/23 08:53:37;;;;;;;64.18;26.83;;;7.60;99.90;;;;;;5021494;28;20427;-82
2022/12/23 08:56:05;;;;;;;50.90;24.92;;;7.40;99.90;;;;;;5027691;28;20423;-84
2022/12/23 08:58:34;;;;;;;52.83;26.27;;;7.40;99.90;;;;;;5009315;28;20781;-83
2022/12/23 09:01:05;;;;;;;59.13;25.95;;;7.50;99.90;;;;;;5032580;28;20521;-83
2022/12/23 09:03:31;;;;;;;55.65;26.15;;;7.60;99.90;;;;;;5019641;28;20430;-82
2022/12/23 09:05:56;;;;;;;49.67;24.75;;;7.50;99.90;;;;;;5026149;28;20501;-82
2022/12/23 09:08:22;;;;;;;55.90;26.43;;;7.70;99.90;;;;;;5024698;28;20423;-79
2022/12/23 09:10:48;;;;;;;51.80;26.43;;;7.50;99.90;;;;;;5019734;28;20524;-79
2022/12/23 09:13:13;;;;;;;60.07;27.03;;;7.50;99.90;;;;;;5025990;28;20497;-78
2022/12/23 09:15:41;;;;;;;68.35;28.33;;;7.70;99.90;;;;;;5025094;28;21014;-78
2022/12/23 09:18:07;;;;;;;57.35;29.30;;;7.60;99.90;;;;;;5021019;28;20897;-78
2022/12/23 09:20:33;;;;;;;67.50;29.93;;;7.60;99.90;;;;;;5023268;28;20435;-78
2022/12/23 09:23:00;;;;;;;67.63;29.43;;;7.60;99.90;;;;;;5024438;28;20996;-79
2022/12/23 09:25:26;;;;;;;83.28;33.15;;;7.50;99.90;;;;;;5005323;28;20455;-79
2022/12/23 09:27:52;;;;;;;71.47;29.58;;;7.50;99.90;;;;;;4986750;28;20799;-79
2022/12/23 09:30:17;;;;;;;69.80;28.75;;;7.50;99.90;;;;;;4989380;28;20428;-78
2022/12/23 09:32:43;;;;;;;67.15;28.33;;;7.30;99.90;;;;;;5006401;28;20444;-75
2022/12/23 09:35:09;;;;;;;62.33;26.95;;;7.50;99.90;;;;;;4988527;28;20515;-77
2022/12/23 09:37:35;;;;;;;53.97;25.40;;;7.60;99.90;;;;;;4989609;28;20453;-77
2022/12/23 09:40:01;;;;;;;59.15;26.20;;;7.80;99.90;;;;;;5006016;28;20479;-77
2022/12/23 09:42:52;;;;;;;52.72;24.75;;;7.70;99.90;;;;;;5007158;28;20427;-77
2022/12/23 09:45:36;;;;;;;71.78;28.70;;;7.70;99.90;;;;;;4996034;28;20457;-78
2022/12/23 09:48:03;;;;;;;57.63;27.38;;;7.80;99.90;;;;;;4982096;28;20468;-77
2022/12/23 09:50:32;;;;;;;75.10;28.77;;;7.80;99.90;;;;;;4988617;28;20436;-74
2022/12/23 09:53:09;;;;;;;50.25;26.38;;;8.00;99.90;;;;;;4988956;28;20436;-76
2022/12/23 09:55:54;;;;;;;45.05;22.90;;;7.70;99.90;;;;;;4997917;28;20420;-76
2022/12/23 09:58:36;;;;;;;42.65;22.00;;;7.70;99.90;;;;;;4985989;28;21291;-76
2022/12/23 10:01:34;;;;;;;53.42;23.40;;;7.80;99.90;;;;;;4973556;28;20416;-77
2022/12/23 10:04:02;;;;;;;53.20;23.27;;;8.10;99.90;;;;;;5006591;28;20455;-76
2022/12/23 10:06:29;;;;;;;56.60;24.13;;;8.00;99.90;;;;;;4989321;28;20444;-77
2022/12/23 10:09:02;;;;;;;42.30;21.33;;;8.00;99.90;;;;;;5005522;28;20487;-77
2022/12/23 10:11:32;;;;;;;48.88;22.77;;;7.90;99.90;;;;;;5007572;28;20421;-78
2022/12/23 10:14:15;;;;;;;34.92;19.55;;;8.10;99.90;;;;;;4966527;28;20750;-78
2022/12/23 10:16:44;;;;;;;37.25;19.92;;;7.90;99.90;;;;;;4984676;28;20441;-78
2022/12/23 10:19:29;;;;;;;40.92;19.98;;;7.90;99.90;;;;;;4999210;28;20488;-77
2022/12/23 10:22:04;;;;;;;38.55;20.25;;;8.10;99.90;;;;;;4997257;28;20425;-78
2022/12/23 10:24:42;;;;;;;35.15;18.92;;;8.00;99.90;;;;;;4995168;28;20874;-78
2022/12/23 10:27:17;;;;;;;38.97;20.53;;;7.90;99.90;;;;;;5025095;28;20442;-77
2022/12/23 10:29:43;;;;;;;34.88;19.02;;;7.90;99.90;;;;;;5026001;28;20415;-77
2022/12/23 10:32:27;;;;;;;34.38;18.38;;;7.80;99.90;;;;;;5016576;28;20821;-77
2022/12/23 10:35:16;;;;;;;38.80;19.53;;;8.10;99.90;;;;;;5007130;28;20437;-77
2022/12/23 10:37:53;;;;;;;35.67;18.77;;;8.00;99.90;;;;;;4988916;28;20535;-77
2022/12/23 10:40:22;;;;;;;29.13;17.00;;;8.20;99.90;;;;;;5008519;28;20427;-77
2022/12/23 10:42:57;;;;;;;33.97;18.30;;;7.90;99.90;;;;;;5022708;28;20453;-78
2022/12/23 10:45:28;;;;;;;34.63;18.42;;;8.00;99.90;;;;;;5030003;28;20422;-77
2022/12/23 10:48:05;;;;;;;30.25;16.85;;;7.90;99.90;;;;;;5029016;28;20441;-78
2022/12/23 10:50:50;;;;;;;33.15;17.35;;;7.90;99.90;;;;;;5011360;28;20433;-77
2022/12/23 10:53:33;;;;;;;32.92;18.52;;;7.70;99.90;;;;;;5029469;28;20865;-77
2022/12/23 10:56:00;;;;;;;31.88;17.85;;;7.90;99.90;;;;;;5029107;28;20407;-77
2022/12/23 10:58:26;;;;;;;33.55;18.80;;;8.00;99.90;;;;;;5029754;28;20415;-77
2022/12/23 11:00:57;;;;;;;35.17;18.20;;;7.90;99.90;;;;;;5017511;28;20421;-77
2022/12/23 11:03:30;;;;;;;37.22;18.95;;;8.00;99.90;;;;;;5025986;28;20804;-77
2022/12/23 11:05:58;;;;;;;29.77;18.67;;;8.00;99.90;;;;;;5029959;28;20987;-78
2022/12/23 11:08:28;;;;;;;30.23;17.38;;;7.80;99.90;;;;;;5028975;28;20450;-78
2022/12/23 11:10:54;;;;;;;33.28;18.27;;;7.90;99.90;;;;;;5029899;28;20494;-77
2022/12/23 11:13:24;;;;;;;33.33;17.77;;;7.80;99.90;;;;;;5015445;28;20430;-77
2022/12/23 11:15:51;;;;;;;29.77;18.15;;;7.70;99.90;;;;;;5009995;28;20445;-78
2022/12/23 11:18:19;;;;;;;34.60;19.20;;;7.70;99.90;;;;;;5008883;28;20432;-77
2022/12/23 11:21:01;;;;;;;33.90;19.10;;;7.90;99.90;;;;;;5024373;28;20798;-78
2022/12/23 11:23:34;;;;;;;30.45;18.30;;;7.90;99.90;;;;;;5021776;28;20427;-77
2022/12/23 11:26:10;;;;;;;32.97;17.80;;;8.00;99.90;;;;;;5011716;28;20443;-78
2022/12/23 11:28:57;;;;;;;32.10;17.90;;;7.90;99.90;;;;;;5008795;28;20409;-78
2022/12/23 11:31:27;;;;;;;28.67;16.45;;;8.00;99.90;;;;;;4974709;28;20417;-77
2022/12/23 11:34:01;;;;;;;27.70;15.52;;;7.90;99.90;;;;;;5009329;28;21599;-75
2022/12/23 11:36:29;;;;;;;28.52;16.02;;;7.90;99.90;;;;;;5008555;28;20405;-77
2022/12/23 11:39:13;;;;;;;30.40;16.60;;;7.80;99.90;;;;;;4991005;28;20463;-76
2022/12/23 11:41:46;;;;;;;30.57;17.53;;;7.80;99.90;;;;;;5009058;28;20514;-77
2022/12/23 11:44:17;;;;;;;28.00;17.40;;;8.00;99.90;;;;;;4991530;28;20791;-78
2022/12/23 11:46:43;;;;;;;28.20;17.60;;;7.90;99.90;;;;;;4974518;28;20429;-77
2022/12/23 11:49:19;;;;;;;27.58;15.77;;;7.90;99.90;;;;;;5002284;28;20432;-76
2022/12/23 11:52:11;;;;;;;27.92;16.13;;;7.90;99.90;;;;;;5005024;28;20428;-76
2022/12/23 11:54:38;;;;;;;26.70;16.30;;;8.00;99.90;;;;;;4979919;28;20807;-76
2022/12/23 11:57:08;;;;;;;26.38;15.60;;;8.00;99.90;;;;;;5008586;28;20467;-76
2022/12/23 11:59:40;;;;;;;26.75;16.48;;;8.00;99.90;;;;;;5000673;28;20423;-76
2022/12/23 12:02:34;;;;;;;25.40;14.95;;;8.00;99.90;;;;;;4974593;28;20413;-75
2022/12/23 12:05:15;;;;;;;28.83;16.90;;;7.90;99.90;;;;;;4990886;28;20420;-75
2022/12/23 12:07:45;;;;;;;24.75;15.73;;;8.10;99.90;;;;;;4991646;28;20486;-76
2022/12/23 12:10:24;;;;;;;24.35;15.02;;;8.10;99.90;;;;;;5006328;28;20536;-77
2022/12/23 12:12:59;;;;;;;26.13;14.57;;;8.00;99.90;;;;;;5002780;28;20433;-76
2022/12/23 12:15:55;;;;;;;27.77;15.63;;;8.00;99.90;;;;;;4987819;28;20410;-78
2022/12/23 12:18:22;;;;;;;23.85;13.57;;;8.00;99.90;;;;;;4960766;28;20418;-77
2022/12/23 12:20:54;;;;;;;22.88;13.30;;;8.00;99.90;;;;;;4990546;28;20410;-77
2022/12/23 12:23:34;;;;;;;23.42;14.77;;;8.10;99.90;;;;;;4997227;28;20457;-77
2022/12/23 12:26:10;;;;;;;20.83;13.90;;;8.10;99.90;;;;;;4985788;28;20930;-78
2022/12/23 12:28:40;;;;;;;24.13;13.23;;;8.20;99.90;;;;;;5008703;28;20427;-78
2022/12/23 12:31:49;;;;;;;25.80;14.23;;;8.10;99.90;;;;;;5008685;28;20459;-78
2022/12/23 12:34:32;;;;;;;22.98;13.90;;;8.10;99.90;;;;;;4991483;28;20472;-81
2022/12/23 12:37:21;;;;;;;26.30;14.23;;;8.10;99.90;;;;;;4975113;28;20436;-78
2022/12/23 12:40:12;;;;;;;21.50;12.82;;;8.10;99.90;;;;;;5007740;28;20413;-78
2022/12/23 12:42:46;;;;;;;25.77;13.03;;;8.20;99.90;;;;;;5000289;28;20492;-78
2022/12/23 12:45:26;;;;;;;27.95;14.77;;;8.10;99.90;;;;;;4971446;28;20402;-78
2022/12/23 12:48:26;;;;;;;24.50;13.38;;;8.20;99.90;;;;;;4994441;28;20475;-78
2022/12/23 12:51:33;;;;;;;22.42;13.88;;;8.00;99.90;;;;;;4988982;28;20426;-78
2022/12/23 12:54:09;;;;;;;26.75;13.70;;;8.00;99.90;;;;;;4926007;28;20484;-78
2022/12/23 12:56:51;;;;;;;26.10;14.27;;;8.10;99.90;;;;;;4988821;28;20428;-78
2022/12/23 12:59:20;;;;;;;20.58;12.18;;;8.10;99.90;;;;;;4990047;28;20421;-77
2022/12/23 13:02:23;;;;;;;25.40;14.35;;;8.20;99.90;;;;;;5007353;28;20435;-78
2022/12/23 13:05:01;;;;;;;23.70;14.15;;;8.20;99.90;;;;;;5006690;28;20423;-78
2022/12/23 13:07:37;;;;;;;26.27;13.50;;;8.20;99.90;;;;;;5008067;28;20445;-79
2022/12/23 13:10:24;;;;;;;26.73;14.02;;;8.20;99.90;;;;;;5007553;28;20432;-78
2022/12/23 13:13:02;;;;;;;23.17;12.65;;;8.10;99.90;;;;;;5008195;28;20440;-78
2022/12/23 13:15:45;;;;;;;22.20;13.05;;;8.00;99.90;;;;;;4990328;28;20428;-78
2022/12/23 13:18:35;;;;;;;23.20;13.98;;;8.10;99.90;;;;;;5007086;28;20433;-78
2022/12/23 13:21:11;;;;;;;23.42;14.35;;;8.00;99.90;;;;;;4989841;28;20478;-77
2022/12/23 13:24:09;;;;;;;25.77;13.95;;;7.80;99.90;;;;;;5006751;28;20417;-80
2022/12/23 13:26:59;;;;;;;28.48;14.13;;;7.80;99.90;;;;;;5006001;28;20997;-78
2022/12/23 13:30:01;;;;;;;26.00;13.48;;;7.80;99.90;;;;;;5007744;28;20412;-78